Terminal Aerodrome Forecast
Issued by NWS Cleveland, OH

Home | Current Version | Previous Version | Graphics & Text | Print | Product List | Glossary On
Versions: 1 2 3 4 5 6 7 8 9 10 11 12 13 14 15 16 17 18 19 20 21 22 23 24 25 26 27
015
FTUS41 KCLE 230858 AAA
TAFCLE
TAF AMD
KCLE 230858Z 2309/2412 26004KT P6SM BKN019 BKN030
      TEMPO 2309/2311 SCT019 BKN030
     FM231100 VRB03KT 6SM BR BKN015 BKN020
     FM231500 28004KT P6SM SCT019 BKN035 PROB30 2318/2322 4SM TS
      BKN030CB BKN040
     FM240500 25005KT 5SM BR FEW035 SCT140=

USA.gov is the U.S. government's official web portal to all federal, state and local government web resources and services.